sensor_id;sensor_type;location;lat;lon;timestamp;pressure;altitude;pressure_sealevel;temperature;humidity
7614;BME280;3848;42.016;23.098;2023-03-01T00:01:27;97480.28;;;9.12;100.00
7614;BME280;3848;42.016;23.098;2023-03-01T00:03:54;97477.78;;;9.19;100.00
7614;BME280;3848;42.016;23.098;2023-03-01T00:06:22;97479.47;;;9.26;100.00
7614;BME280;3848;42.016;23.098;2023-03-01T00:08:50;97475.25;;;9.25;100.00
7614;BME280;3848;42.016;23.098;2023-03-01T00:11:21;97482.03;;;9.36;100.00
7614;BME280;3848;42.016;23.098;2023-03-01T00:13:50;97478.69;;;9.39;100.00
7614;BME280;3848;42.016;23.098;2023-03-01T00:16:18;97483.75;;;9.39;100.00
7614;BME280;3848;42.016;23.098;2023-03-01T00:18:46;97482.06;;;9.41;100.00
7614;BME280;3848;42.016;23.098;2023-03-01T00:21:13;97479.53;;;9.38;100.00
7614;BME280;3848;42.016;23.098;2023-03-01T00:23:40;97480.34;;;9.32;100.00
7614;BME280;3848;42.016;23.098;2023-03-01T00:26:09;97483.72;;;9.31;100.00
7614;BME280;3848;42.016;23.098;2023-03-01T00:28:37;97482.88;;;9.28;100.00
7614;BME280;3848;42.016;23.098;2023-03-01T00:31:04;97486.22;;;9.22;100.00
7614;BME280;3848;42.016;23.098;2023-03-01T00:33:32;97487.88;;;9.15;100.00
7614;BME280;3848;42.016;23.098;2023-03-01T00:35:59;97491.25;;;9.14;100.00
7614;BME280;3848;42.016;23.098;2023-03-01T00:38:26;97484.50;;;9.10;100.00
7614;BME280;3848;42.016;23.098;2023-03-01T00:40:53;97491.22;;;8.99;100.00
7614;BME280;3848;42.016;23.098;2023-03-01T00:43:20;97494.59;;;9.00;100.00
7614;BME280;3848;42.016;23.098;2023-03-01T00:45:48;97500.53;;;9.03;100.00
7614;BME280;3848;42.016;23.098;2023-03-01T00:48:15;97496.31;;;9.07;100.00
7614;BME280;3848;42.016;23.098;2023-03-01T00:50:42;97493.78;;;9.10;100.00
7614;BME280;3848;42.016;23.098;2023-03-01T00:53:09;97493.78;;;9.11;100.00
7614;BME280;3848;42.016;23.098;2023-03-01T00:55:36;97492.09;;;9.13;100.00
7614;BME280;3848;42.016;23.098;2023-03-01T00:58:03;97485.34;;;9.12;100.00
7614;BME280;3848;42.016;23.098;2023-03-01T01:00:30;97489.59;;;9.16;100.00
7614;BME280;3848;42.016;23.098;2023-03-01T01:02:58;97411.75;;;8.77;100.00
7614;BME280;3848;42.016;23.098;2023-03-01T01:05:24;97475.22;;;9.15;100.00
7614;BME280;3848;42.016;23.098;2023-03-01T01:07:51;97473.50;;;9.13;100.00
7614;BME280;3848;42.016;23.098;2023-03-01T01:10:18;97474.41;;;9.16;100.00
7614;BME280;3848;42.016;23.098;2023-03-01T01:12:46;97473.56;;;9.21;100.00
7614;BME280;3848;42.016;23.098;2023-03-01T01:15:13;97471.88;;;9.20;100.00
7614;BME280;3848;42.016;23.098;2023-03-01T01:17:41;97469.31;;;9.20;100.00
7614;BME280;3848;42.016;23.098;2023-03-01T01:20:11;97465.94;;;9.19;100.00
7614;BME280;3848;42.016;23.098;2023-03-01T01:22:38;97469.31;;;9.16;100.00
7614;BME280;3848;42.016;23.098;2023-03-01T01:25:05;97451.53;;;9.15;100.00
7614;BME280;3848;42.016;23.098;2023-03-01T01:27:32;97434.63;;;9.03;100.00
7614;BME280;3848;42.016;23.098;2023-03-01T01:29:59;97444.78;;;9.12;100.00
7614;BME280;3848;42.016;23.098;2023-03-01T01:32:25;97448.19;;;9.19;100.00
7614;BME280;3848;42.016;23.098;2023-03-01T01:34:52;97448.19;;;9.21;100.00
7614;BME280;3848;42.016;23.098;2023-03-01T01:37:21;97448.19;;;9.21;100.00
7614;BME280;3848;42.016;23.098;2023-03-01T01:39:48;97438.91;;;9.20;100.00
7614;BME280;3848;42.016;23.098;2023-03-01T01:42:16;97422.81;;;9.08;100.00
7614;BME280;3848;42.016;23.098;2023-03-01T01:44:45;97436.34;;;9.10;100.00
7614;BME280;3848;42.016;23.098;2023-03-01T01:47:14;97430.41;;;9.05;100.00
7614;BME280;3848;42.016;23.098;2023-03-01T01:49:46;97425.28;;;8.95;100.00
7614;BME280;3848;42.016;23.098;2023-03-01T01:52:18;97414.31;;;8.91;100.00
7614;BME280;3848;42.016;23.098;2023-03-01T01:54:51;97425.34;;;9.01;100.00
7614;BME280;3848;42.016;23.098;2023-03-01T01:57:22;97425.34;;;9.05;100.00
7614;BME280;3848;42.016;23.098;2023-03-01T01:59:52;97374.56;;;8.72;100.00
7614;BME280;3848;42.016;23.098;2023-03-01T02:02:19;97422.78;;;8.96;100.00
7614;BME280;3848;42.016;23.098;2023-03-01T02:04:47;97382.19;;;8.78;100.00
7614;BME280;3848;42.016;23.098;2023-03-01T02:07:17;97421.06;;;8.95;100.00
7614;BME280;3848;42.016;23.098;2023-03-01T02:09:47;97253.59;;;7.98;100.00
7614;BME280;3848;42.016;23.098;2023-03-01T02:12:17;97405.84;;;8.89;100.00
7614;BME280;3848;42.016;23.098;2023-03-01T02:14:44;97416.84;;;8.93;100.00
7614;BME280;3848;42.016;23.098;2023-03-01T02:17:12;97413.47;;;8.91;100.00
7614;BME280;3848;42.016;23.098;2023-03-01T02:19:52;97410.94;;;8.92;100.00
7614;BME280;3848;42.016;23.098;2023-03-01T02:22:24;97411.81;;;8.99;100.00
7614;BME280;3848;42.016;23.098;2023-03-01T02:25:03;97409.28;;;9.03;100.00
7614;BME280;3848;42.016;23.098;2023-03-01T02:27:40;97405.03;;;8.95;100.00
7614;BME280;3848;42.016;23.098;2023-03-01T02:30:11;97405.91;;;9.04;100.00
7614;BME280;3848;42.016;23.098;2023-03-01T02:32:39;97410.97;;;9.04;100.00
7614;BME280;3848;42.016;23.098;2023-03-01T02:35:08;97416.03;;;9.03;100.00
7614;BME280;3848;42.016;23.098;2023-03-01T02:37:35;97411.81;;;9.05;100.00
7614;BME280;3848;42.016;23.098;2023-03-01T02:40:06;97416.91;;;9.09;100.00
7614;BME280;3848;42.016;23.098;2023-03-01T02:42:51;97419.44;;;9.14;100.00
7614;BME280;3848;42.016;23.098;2023-03-01T02:45:20;97426.19;;;9.10;100.00
7614;BME280;3848;42.016;23.098;2023-03-01T02:47:48;97420.28;;;9.08;100.00
7614;BME280;3848;42.016;23.098;2023-03-01T02:50:38;97414.34;;;9.06;100.00
7614;BME280;3848;42.016;23.098;2023-03-01T02:53:13;97409.28;;;9.06;100.00
7614;BME280;3848;42.016;23.098;2023-03-01T02:55:42;97397.44;;;8.99;100.00
7614;BME280;3848;42.016;23.098;2023-03-01T02:58:09;97420.28;;;9.10;100.00
7614;BME280;3848;42.016;23.098;2023-03-01T03:00:39;97416.03;;;9.04;100.00
7614;BME280;3848;42.016;23.098;2023-03-01T03:03:13;97406.75;;;9.06;100.00
7614;BME280;3848;42.016;23.098;2023-03-01T03:05:40;97412.66;;;9.07;100.00
7614;BME280;3848;42.016;23.098;2023-03-01T03:08:07;97412.66;;;9.08;100.00
7614;BME280;3848;42.016;23.098;2023-03-01T03:10:36;97412.66;;;9.05;100.00
7614;BME280;3848;42.016;23.098;2023-03-01T03:13:06;97407.59;;;9.04;100.00
7614;BME280;3848;42.016;23.098;2023-03-01T03:15:34;97410.97;;;9.01;100.00
7614;BME280;3848;42.016;23.098;2023-03-01T03:18:04;97355.97;;;8.67;100.00
7614;BME280;3848;42.016;23.098;2023-03-01T03:20:32;97417.72;;;9.02;100.00
7614;BME280;3848;42.016;23.098;2023-03-01T03:22:59;97419.44;;;9.06;100.00
7614;BME280;3848;42.016;23.098;2023-03-01T03:25:28;97415.22;;;9.08;100.00
7614;BME280;3848;42.016;23.098;2023-03-01T03:27:56;97410.97;;;9.07;100.00
7614;BME280;3848;42.016;23.098;2023-03-01T03:30:24;97416.91;;;9.08;100.00
7614;BME280;3848;42.016;23.098;2023-03-01T03:32:51;97402.53;;;9.01;100.00
7614;BME280;3848;42.016;23.098;2023-03-01T03:35:21;97360.19;;;8.72;100.00
7614;BME280;3848;42.016;23.098;2023-03-01T03:37:50;97410.13;;;9.02;100.00
7614;BME280;3848;42.016;23.098;2023-03-01T03:40:35;97418.56;;;8.98;100.00
7614;BME280;3848;42.016;23.098;2023-03-01T03:43:02;97418.53;;;8.91;100.00
7614;BME280;3848;42.016;23.098;2023-03-01T03:45:29;97418.53;;;8.86;100.00
7614;BME280;3848;42.016;23.098;2023-03-01T03:48:13;97421.06;;;8.89;100.00
7614;BME280;3848;42.016;23.098;2023-03-01T03:50:46;97426.13;;;8.95;100.00
7614;BME280;3848;42.016;23.098;2023-03-01T03:53:13;97432.94;;;8.99;100.00
7614;BME280;3848;42.016;23.098;2023-03-01T03:55:40;97424.50;;;9.03;100.00
7614;BME280;3848;42.016;23.098;2023-03-01T03:58:09;97419.41;;;8.97;100.00
7614;BME280;3848;42.016;23.098;2023-03-01T04:03:24;97426.13;;;8.86;100.00
7614;BME280;3848;42.016;23.098;2023-03-01T04:05:53;97426.97;;;8.80;100.00
7614;BME280;3848;42.016;23.098;2023-03-01T04:08:21;97432.03;;;8.83;100.00
7614;BME280;3848;42.016;23.098;2023-03-01T04:10:51;97426.97;;;8.82;100.00
7614;BME280;3848;42.016;23.098;2023-03-01T04:13:20;97432.88;;;8.78;100.00
7614;BME280;3848;42.016;23.098;2023-03-01T04:15:48;97414.25;;;8.71;100.00
7614;BME280;3848;42.016;23.098;2023-03-01T04:18:17;97435.34;;;8.72;100.00
7614;BME280;3848;42.016;23.098;2023-03-01T04:20:44;97432.78;;;8.63;100.00
7614;BME280;3848;42.016;23.098;2023-03-01T04:23:14;97411.59;;;8.39;100.00
7614;BME280;3848;42.016;23.098;2023-03-01T04:25:47;97435.25;;;8.46;100.00
7614;BME280;3848;42.016;23.098;2023-03-01T04:28:19;97422.53;;;8.37;100.00
7614;BME280;3848;42.016;23.098;2023-03-01T04:30:46;97436.03;;;8.34;100.00
7614;BME280;3848;42.016;23.098;2023-03-01T04:33:13;97442.81;;;8.41;100.00
7614;BME280;3848;42.016;23.098;2023-03-01T04:35:40;97445.38;;;8.46;100.00
7614;BME280;3848;42.016;23.098;2023-03-01T04:38:07;97448.75;;;8.49;100.00
7614;BME280;3848;42.016;23.098;2023-03-01T04:40:36;97447.94;;;8.53;100.00
7614;BME280;3848;42.016;23.098;2023-03-01T04:43:03;97443.75;;;8.54;100.00
7614;BME280;3848;42.016;23.098;2023-03-01T04:45:32;97425.97;;;8.49;100.00
7614;BME280;3848;42.016;23.098;2023-03-01T04:47:59;97437.03;;;8.65;100.00
7614;BME280;3848;42.016;23.098;2023-03-01T04:50:27;97433.66;;;8.69;100.00
7614;BME280;3848;42.016;23.098;2023-03-01T04:52:54;97436.19;;;8.71;100.00
7614;BME280;3848;42.016;23.098;2023-03-01T04:55:24;97439.56;;;8.73;100.00
7614;BME280;3848;42.016;23.098;2023-03-01T04:57:52;97439.56;;;8.70;100.00
7614;BME280;3848;42.016;23.098;2023-03-01T05:00:20;97440.41;;;8.72;100.00
7614;BME280;3848;42.016;23.098;2023-03-01T05:02:48;97435.41;;;8.76;100.00
7614;BME280;3848;42.016;23.098;2023-03-01T05:05:19;97433.72;;;8.78;100.00
7614;BME280;3848;42.016;23.098;2023-03-01T05:07:47;97444.69;;;8.76;100.00
7614;BME280;3848;42.016;23.098;2023-03-01T05:10:13;97448.06;;;8.78;100.00
7614;BME280;3848;42.016;23.098;2023-03-01T05:12:40;97376.97;;;8.35;100.00
7614;BME280;3848;42.016;23.098;2023-03-01T05:15:09;97453.97;;;8.77;100.00
7614;BME280;3848;42.016;23.098;2023-03-01T05:17:36;97447.16;;;8.67;100.00
7614;BME280;3848;42.016;23.098;2023-03-01T05:20:03;97460.66;;;8.66;100.00
7614;BME280;3848;42.016;23.098;2023-03-01T05:22:34;97461.41;;;8.49;100.00
7614;BME280;3848;42.016;23.098;2023-03-01T05:25:01;97462.94;;;8.29;100.00
7614;BME280;3848;42.016;23.098;2023-03-01T05:27:28;97465.28;;;7.99;100.00
7614;BME280;3848;42.016;23.098;2023-03-01T05:29:55;97461.00;;;7.90;100.00
7614;BME280;3848;42.016;23.098;2023-03-01T05:32:24;97459.25;;;7.84;100.00
7614;BME280;3848;42.016;23.098;2023-03-01T05:34:50;97464.28;;;7.80;100.00
7614;BME280;3848;42.016;23.098;2023-03-01T05:37:20;97471.91;;;7.81;100.00
7614;BME280;3848;42.016;23.098;2023-03-01T05:39:47;97471.91;;;7.84;100.00
7614;BME280;3848;42.016;23.098;2023-03-01T05:42:15;97471.88;;;7.78;100.00
7614;BME280;3848;42.016;23.098;2023-03-01T05:44:42;97476.16;;;7.88;100.00
7614;BME280;3848;42.016;23.098;2023-03-01T05:47:09;97476.97;;;7.86;100.00
7614;BME280;3848;42.016;23.098;2023-03-01T05:49:38;97482.00;;;7.81;100.00
7614;BME280;3848;42.016;23.098;2023-03-01T05:52:04;97491.28;;;7.79;100.00
7614;BME280;3848;42.016;23.098;2023-03-01T05:54:31;97491.22;;;7.73;100.00
7614;BME280;3848;42.016;23.098;2023-03-01T05:56:58;97495.47;;;7.79;100.00
7614;BME280;3848;42.016;23.098;2023-03-01T05:59:25;97494.66;;;7.80;100.00
7614;BME280;3848;42.016;23.098;2023-03-01T06:01:52;97487.88;;;7.77;100.00
7614;BME280;3848;42.016;23.098;2023-03-01T06:04:18;97498.06;;;7.85;100.00
7614;BME280;3848;42.016;23.098;2023-03-01T06:06:47;97496.41;;;7.88;100.00
7614;BME280;3848;42.016;23.098;2023-03-01T06:09:14;97505.75;;;7.94;100.00
7614;BME280;3848;42.016;23.098;2023-03-01T06:11:41;97509.13;;;7.96;100.00
7614;BME280;3848;42.016;23.098;2023-03-01T06:14:08;97459.13;;;7.69;100.00
7614;BME280;3848;42.016;23.098;2023-03-01T06:16:35;97494.78;;;7.95;100.00
7614;BME280;3848;42.016;23.098;2023-03-01T06:19:02;97513.38;;;8.00;100.00
7614;BME280;3848;42.016;23.098;2023-03-01T06:21:29;97510.78;;;7.92;100.00
7614;BME280;3848;42.016;23.098;2023-03-01T06:23:57;97524.34;;;8.02;100.00
7614;BME280;3848;42.016;23.098;2023-03-01T06:26:24;97509.91;;;7.90;100.00
7614;BME280;3848;42.016;23.098;2023-03-01T06:28:51;97514.13;;;7.90;100.00
7614;BME280;3848;42.016;23.098;2023-03-01T06:31:18;97515.03;;;7.93;100.00
7614;BME280;3848;42.016;23.098;2023-03-01T06:33:45;97516.72;;;7.98;100.00
7614;BME280;3848;42.016;23.098;2023-03-01T06:36:11;97509.03;;;7.88;100.00
7614;BME280;3848;42.016;23.098;2023-03-01T06:38:38;97526.00;;;7.94;100.00
7614;BME280;3848;42.016;23.098;2023-03-01T06:41:07;97532.78;;;8.01;100.00
7614;BME280;3848;42.016;23.098;2023-03-01T06:43:34;97535.31;;;8.01;100.00
7614;BME280;3848;42.016;23.098;2023-03-01T06:46:03;97531.13;;;8.08;100.00
7614;BME280;3848;42.016;23.098;2023-03-01T06:48:30;97533.81;;;8.23;100.00
7614;BME280;3848;42.016;23.098;2023-03-01T06:50:58;97530.56;;;8.38;100.00
7614;BME280;3848;42.016;23.098;2023-03-01T06:53:26;97527.22;;;8.43;100.00
7614;BME280;3848;42.016;23.098;2023-03-01T06:55:55;97530.66;;;8.53;100.00
7614;BME280;3848;42.016;23.098;2023-03-01T06:58:23;97530.75;;;8.64;100.00
7614;BME280;3848;42.016;23.098;2023-03-01T07:00:50;97529.91;;;8.66;100.00
7614;BME280;3848;42.016;23.098;2023-03-01T07:03:17;97529.13;;;8.75;100.00
7614;BME280;3848;42.016;23.098;2023-03-01T07:05:44;97529.16;;;8.81;100.00
7614;BME280;3848;42.016;23.098;2023-03-01T07:08:11;97524.09;;;8.89;100.00
7614;BME280;3848;42.016;23.098;2023-03-01T07:10:37;97517.34;;;8.86;100.00
7614;BME280;3848;42.016;23.098;2023-03-01T07:13:04;97532.56;;;8.95;100.00
7614;BME280;3848;42.016;23.098;2023-03-01T07:15:33;97530.94;;;9.00;100.00
7614;BME280;3848;42.016;23.098;2023-03-01T07:18:00;97524.19;;;9.05;100.00
7614;BME280;3848;42.016;23.098;2023-03-01T07:20:27;97532.66;;;9.07;100.00
7614;BME280;3848;42.016;23.098;2023-03-01T07:22:55;97469.16;;;8.75;100.00
7614;BME280;3848;42.016;23.098;2023-03-01T07:25:23;97519.13;;;9.05;100.00
7614;BME280;3848;42.016;23.098;2023-03-01T07:27:50;97526.75;;;9.11;100.00
7614;BME280;3848;42.016;23.098;2023-03-01T07:30:17;97462.44;;;8.82;100.00
7614;BME280;3848;42.016;23.098;2023-03-01T07:32:46;97521.72;;;9.19;100.00
7614;BME280;3848;42.016;23.098;2023-03-01T07:35:13;97522.59;;;9.27;100.00
7614;BME280;3848;42.016;23.098;2023-03-01T07:37:40;97512.44;;;9.32;100.00
7614;BME280;3848;42.016;23.098;2023-03-01T07:40:08;97516.69;;;9.33;100.00
7614;BME280;3848;42.016;23.098;2023-03-01T07:42:35;97478.56;;;9.05;100.00
7614;BME280;3848;42.016;23.098;2023-03-01T07:45:02;97520.06;;;9.32;100.00
7614;BME280;3848;42.016;23.098;2023-03-01T07:47:29;97520.91;;;9.37;100.00
7614;BME280;3848;42.016;23.098;2023-03-01T07:49:58;97523.47;;;9.40;100.00
7614;BME280;3848;42.016;23.098;2023-03-01T07:52:26;97515.84;;;9.35;100.00
7614;BME280;3848;42.016;23.098;2023-03-01T07:54:53;97526.03;;;9.49;100.00
7614;BME280;3848;42.016;23.098;2023-03-01T07:57:20;97522.69;;;9.61;100.00
7614;BME280;3848;42.016;23.098;2023-03-01T07:59:47;97520.16;;;9.65;100.00
7614;BME280;3848;42.016;23.098;2023-03-01T08:02:13;97520.16;;;9.76;100.00
7614;BME280;3848;42.016;23.098;2023-03-01T08:04:41;97525.25;;;9.91;100.00
7614;BME280;3848;42.016;23.098;2023-03-01T08:07:09;97514.25;;;9.94;100.00
7614;BME280;3848;42.016;23.098;2023-03-01T08:09:36;97453.34;;;9.69;100.00
7614;BME280;3848;42.016;23.098;2023-03-01T08:12:03;97515.94;;;10.16;100.00
7614;BME280;3848;42.016;23.098;2023-03-01T08:14:31;97514.28;;;10.30;100.00
7614;BME280;3848;42.016;23.098;2023-03-01T08:16:57;97507.53;;;10.28;100.00
7614;BME280;3848;42.016;23.098;2023-03-01T08:19:24;97511.72;;;10.39;100.00
7614;BME280;3848;42.016;23.098;2023-03-01T08:21:53;97521.03;;;10.51;100.00
7614;BME280;3848;42.016;23.098;2023-03-01T08:24:21;97520.16;;;10.61;100.00
7614;BME280;3848;42.016;23.098;2023-03-01T08:26:48;97517.63;;;10.67;100.00
7614;BME280;3848;42.016;23.098;2023-03-01T08:29:15;97513.34;;;10.77;100.00
7614;BME280;3848;42.016;23.098;2023-03-01T08:31:42;97516.72;;;10.90;100.00
7614;BME280;3848;42.016;23.098;2023-03-01T08:34:11;97514.16;;;10.96;100.00
7614;BME280;3848;42.016;23.098;2023-03-01T08:36:40;97507.38;;;10.93;100.00
7614;BME280;3848;42.016;23.098;2023-03-01T08:39:08;97514.19;;;10.79;100.00
7614;BME280;3848;42.016;23.098;2023-03-01T08:41:37;97514.19;;;10.79;100.00
7614;BME280;3848;42.016;23.098;2023-03-01T08:44:04;97510.81;;;10.86;100.00
7614;BME280;3848;42.016;23.098;2023-03-01T08:46:33;97503.16;;;10.89;100.00
7614;BME280;3848;42.016;23.098;2023-03-01T08:49:03;97492.13;;;10.90;100.00
7614;BME280;3848;42.016;23.098;2023-03-01T08:51:31;97509.00;;;11.13;100.00
7614;BME280;3848;42.016;23.098;2023-03-01T08:54:02;97497.19;;;10.96;100.00
7614;BME280;3848;42.016;23.098;2023-03-01T08:56:29;97494.69;;;10.89;100.00
7614;BME280;3848;42.016;23.098;2023-03-01T08:58:57;97493.00;;;10.88;100.00
7614;BME280;3848;42.016;23.098;2023-03-01T09:01:24;97493.78;;;11.05;100.00
7614;BME280;3848;42.016;23.098;2023-03-01T09:03:51;97486.91;;;11.19;100.00
7614;BME280;3848;42.016;23.098;2023-03-01T09:06:18;97493.63;;;11.34;100.00
7614;BME280;3848;42.016;23.098;2023-03-01T09:08:46;97481.66;;;11.51;100.00
7614;BME280;3848;42.016;23.098;2023-03-01T09:11:16;97474.78;;;11.63;100.00
7614;BME280;3848;42.016;23.098;2023-03-01T09:13:43;97478.22;;;11.60;100.00
7614;BME280;3848;42.016;23.098;2023-03-01T09:16:13;97484.09;;;11.65;100.00
7614;BME280;3848;42.016;23.098;2023-03-01T09:18:41;97472.28;;;11.59;100.00
7614;BME280;3848;42.016;23.098;2023-03-01T09:21:10;97475.78;;;11.46;100.00
7614;BME280;3848;42.016;23.098;2023-03-01T09:23:39;97475.78;;;11.40;100.00
7614;BME280;3848;42.016;23.098;2023-03-01T09:26:07;97453.84;;;11.25;100.00
7614;BME280;3848;42.016;23.098;2023-03-01T09:28:35;97442.81;;;11.25;100.00
7614;BME280;3848;42.016;23.098;2023-03-01T09:31:03;97457.94;;;11.49;100.00
7614;BME280;3848;42.016;23.098;2023-03-01T09:33:32;97458.63;;;11.73;100.00
7614;BME280;3848;42.016;23.098;2023-03-01T09:36:00;97454.25;;;11.93;100.00
7614;BME280;3848;42.016;23.098;2023-03-01T09:38:27;97437.00;;;12.23;100.00
7614;BME280;3848;42.016;23.098;2023-03-01T09:40:54;97440.13;;;12.50;100.00
7614;BME280;3848;42.016;23.098;2023-03-01T09:43:24;97441.53;;;12.76;100.00
7614;BME280;3848;42.016;23.098;2023-03-01T09:45:58;97427.94;;;12.75;100.00
7614;BME280;3848;42.016;23.098;2023-03-01T09:48:29;97439.53;;;12.99;100.00
7614;BME280;3848;42.016;23.098;2023-03-01T09:51:03;97439.28;;;13.22;100.00
7614;BME280;3848;42.016;23.098;2023-03-01T09:53:33;97428.88;;;13.36;100.00
7614;BME280;3848;42.016;23.098;2023-03-01T09:56:05;97430.16;;;13.63;100.00
7614;BME280;3848;42.016;23.098;2023-03-01T09:58:45;97429.94;;;14.27;100.00
7614;BME280;3848;42.016;23.098;2023-03-01T10:01:30;97387.44;;;14.68;100.00
7614;BME280;3848;42.016;23.098;2023-03-01T10:04:24;97428.63;;;15.36;100.00
7614;BME280;3848;42.016;23.098;2023-03-01T10:07:05;97423.81;;;15.61;100.00
7614;BME280;3848;42.016;23.098;2023-03-01T10:09:41;97426.34;;;15.64;95.90
7614;BME280;3848;42.016;23.098;2023-03-01T10:12:18;97420.41;;;15.23;92.49
7614;BME280;3848;42.016;23.098;2023-03-01T10:14:54;97417.53;;;14.97;99.45
7614;BME280;3848;42.016;23.098;2023-03-01T10:17:30;97426.88;;;15.00;90.62
7614;BME280;3848;42.016;23.098;2023-03-01T10:20:14;97421.38;;;15.16;100.00
7614;BME280;3848;42.016;23.098;2023-03-01T10:22:43;97419.69;;;15.54;100.00
7614;BME280;3848;42.016;23.098;2023-03-01T10:25:20;97410.59;;;15.41;90.27
7614;BME280;3848;42.016;23.098;2023-03-01T10:27:52;97422.75;;;15.33;90.51
7614;BME280;3848;42.016;23.098;2023-03-01T10:30:22;97406.31;;;15.04;88.11
7614;BME280;3848;42.016;23.098;2023-03-01T10:32:57;97414.94;;;14.99;97.84
7614;BME280;3848;42.016;23.098;2023-03-01T10:35:26;97408.81;;;14.66;89.59
7614;BME280;3848;42.016;23.098;2023-03-01T10:38:02;97405.69;;;14.50;96.37
7614;BME280;3848;42.016;23.098;2023-03-01T10:40:30;97383.84;;;14.32;95.29
7614;BME280;3848;42.016;23.098;2023-03-01T10:42:58;97398.94;;;14.47;99.44
7614;BME280;3848;42.016;23.098;2023-03-01T10:45:35;97397.88;;;14.57;100.00
7614;BME280;3848;42.016;23.098;2023-03-01T10:48:10;97395.44;;;14.51;90.26
7614;BME280;3848;42.016;23.098;2023-03-01T10:50:38;97393.97;;;14.37;94.35
7614;BME280;3848;42.016;23.098;2023-03-01T10:53:26;97391.47;;;14.33;95.51
7614;BME280;3848;42.016;23.098;2023-03-01T10:55:59;97394.03;;;14.80;100.00
7614;BME280;3848;42.016;23.098;2023-03-01T10:58:28;97392.50;;;15.11;87.92
7614;BME280;3848;42.016;23.098;2023-03-01T11:00:56;97387.25;;;15.16;92.58
7614;BME280;3848;42.016;23.098;2023-03-01T11:03:24;97388.00;;;15.22;94.63
7614;BME280;3848;42.016;23.098;2023-03-01T11:06:00;97392.31;;;15.19;91.77
7614;BME280;3848;42.016;23.098;2023-03-01T11:08:40;97384.63;;;15.19;93.38
7614;BME280;3848;42.016;23.098;2023-03-01T11:11:17;97381.53;;;15.06;89.86
7614;BME280;3848;42.016;23.098;2023-03-01T11:13:56;97372.50;;;14.88;95.29
7614;BME280;3848;42.016;23.098;2023-03-01T11:16:33;97371.91;;;14.76;92.67
7614;BME280;3848;42.016;23.098;2023-03-01T11:19:17;97353.41;;;14.64;100.00
7614;BME280;3848;42.016;23.098;2023-03-01T11:21:52;97368.03;;;14.56;94.04
7614;BME280;3848;42.016;23.098;2023-03-01T11:24:26;97352.41;;;14.27;92.57
7614;BME280;3848;42.016;23.098;2023-03-01T11:26:56;97356.22;;;14.06;99.50
7614;BME280;3848;42.016;23.098;2023-03-01T11:29:32;97354.63;;;14.00;100.00
7614;BME280;3848;42.016;23.098;2023-03-01T11:32:06;97358.19;;;13.90;100.00
7614;BME280;3848;42.016;23.098;2023-03-01T11:34:39;97350.47;;;13.93;100.00
7614;BME280;3848;42.016;23.098;2023-03-01T11:37:18;97344.53;;;13.93;100.00
7614;BME280;3848;42.016;23.098;2023-03-01T11:39:57;97343.69;;;13.92;100.00
7614;BME280;3848;42.016;23.098;2023-03-01T11:42:34;97343.16;;;13.75;100.00
7614;BME280;3848;42.016;23.098;2023-03-01T11:45:09;97344.88;;;13.73;100.00
7614;BME280;3848;42.016;23.098;2023-03-01T11:47:50;97342.34;;;13.71;100.00
7614;BME280;3848;42.016;23.098;2023-03-01T11:50:30;97334.13;;;13.56;100.00
7614;BME280;3848;42.016;23.098;2023-03-01T11:53:16;97343.47;;;13.57;100.00
7614;BME280;3848;42.016;23.098;2023-03-01T11:56:01;97345.13;;;13.59;100.00
7614;BME280;3848;42.016;23.098;2023-03-01T11:58:42;97330.81;;;13.49;100.00
7614;BME280;3848;42.016;23.098;2023-03-01T12:01:30;97348.41;;;13.66;100.00
7614;BME280;3848;42.016;23.098;2023-03-01T12:07:21;97348.66;;;13.51;100.00
7614;BME280;3848;42.016;23.098;2023-03-01T12:10:13;97346.94;;;13.51;100.00
7614;BME280;3848;42.016;23.098;2023-03-01T12:12:56;97346.00;;;13.58;100.00
7614;BME280;3848;42.016;23.098;2023-03-01T12:15:38;97351.16;;;13.52;100.00
7614;BME280;3848;42.016;23.098;2023-03-01T12:18:28;97348.63;;;13.52;100.00
7614;BME280;3848;42.016;23.098;2023-03-01T12:21:03;97350.38;;;13.49;100.00
7614;BME280;3848;42.016;23.098;2023-03-01T12:23:54;97348.56;;;13.57;100.00
7614;BME280;3848;42.016;23.098;2023-03-01T12:26:31;97334.16;;;13.53;100.00
7614;BME280;3848;42.016;23.098;2023-03-01T12:29:16;97332.41;;;13.56;100.00
7614;BME280;3848;42.016;23.098;2023-03-01T12:37:45;97332.50;;;13.50;100.00
7614;BME280;3848;42.016;23.098;2023-03-01T12:40:34;97325.66;;;13.54;100.00
7614;BME280;3848;42.016;23.098;2023-03-01T12:43:20;97339.50;;;13.39;100.00
7614;BME280;3848;42.016;23.098;2023-03-01T12:46:11;97327.06;;;13.16;100.00
7614;BME280;3848;42.016;23.098;2023-03-01T12:48:46;97327.84;;;13.21;100.00
7614;BME280;3848;42.016;23.098;2023-03-01T12:51:15;97317.81;;;13.07;100.00
7614;BME280;3848;42.016;23.098;2023-03-01T12:53:46;97323.88;;;13.02;100.00
7614;BME280;3848;42.016;23.098;2023-03-01T12:56:16;97325.66;;;12.97;100.00
7614;BME280;3848;42.016;23.098;2023-03-01T12:58:54;97321.38;;;12.97;100.00
7614;BME280;3848;42.016;23.098;2023-03-01T13:01:33;97325.53;;;13.04;100.00
7614;BME280;3848;42.016;23.098;2023-03-01T13:04:14;97307.00;;;12.93;100.00
7614;BME280;3848;42.016;23.098;2023-03-01T13:06:51;97303.78;;;12.79;100.00
7614;BME280;3848;42.016;23.098;2023-03-01T13:09:28;97315.53;;;12.89;100.00
7614;BME280;3848;42.016;23.098;2023-03-01T13:11:57;97319.75;;;12.93;100.00
7614;BME280;3848;42.016;23.098;2023-03-01T13:14:50;97323.25;;;12.85;100.00
7614;BME280;3848;42.016;23.098;2023-03-01T13:17:33;97324.97;;;12.84;100.00
7614;BME280;3848;42.016;23.098;2023-03-01T13:20:12;97309.69;;;12.82;100.00
7614;BME280;3848;42.016;23.098;2023-03-01T13:22:39;97315.44;;;12.97;100.00
7614;BME280;3848;42.016;23.098;2023-03-01T13:25:15;97287.41;;;12.95;100.00
7614;BME280;3848;42.016;23.098;2023-03-01T13:27:43;97278.97;;;12.90;100.00
7614;BME280;3848;42.016;23.098;2023-03-01T13:30:40;97305.00;;;13.12;100.00
7614;BME280;3848;42.016;23.098;2023-03-01T13:33:44;97305.88;;;13.09;100.00
7614;BME280;3848;42.016;23.098;2023-03-01T13:36:42;97280.50;;;13.02;100.00
7614;BME280;3848;42.016;23.098;2023-03-01T13:39:02;97293.19;;;13.05;100.00